Time;durP1;ratioP1;P1;durP2;ratioP2;P2;SDS_P1;SDS_P2;PMS_P1;PMS_P2;Temp;Humidity;BMP_temperature;BMP_pressure;BME280_temperature;BME280_humidity;BME280_pressure;Samples;Min_cycle;Max_cycle;Signal;HPM_P1;HPM_P2
2023/10/13 00:00:29;;;;;;;13.88;8.30;;;;;;;;;;5064750;28;20041;-68
2023/10/13 00:03:00;;;;;;;16.90;7.75;;;;;;;;;;5066497;28;20049;-68
2023/10/13 00:05:27;;;;;;;11.93;7.80;;;;;;;;;;5069079;28;20140;-68
2023/10/13 00:07:54;;;;;;;14.38;8.20;;;;;;;;;;5059028;28;20080;-68
2023/10/13 00:10:21;;;;;;;13.77;7.78;;;;;;;;;;5072733;28;20060;-68
2023/10/13 00:12:49;;;;;;;13.32;7.82;;;;;;;;;;5058665;28;20124;-68
2023/10/13 00:15:27;;;;;;;12.88;8.02;;;;;;;;;;5060848;28;20053;-68
2023/10/13 00:17:55;;;;;;;13.20;8.35;;;;;;;;;;5058677;28;20048;-68
2023/10/13 00:20:39;;;;;;;13.85;7.82;;;;;;;;;;5063850;28;20053;-68
2023/10/13 00:23:06;;;;;;;12.40;7.78;;;;;;;;;;5056408;28;20060;-68
2023/10/13 00:25:39;;;;;;;15.80;7.60;;;;;;;;;;5053654;28;20435;-67
2023/10/13 00:28:08;;;;;;;13.80;8.50;;;;;;;;;;5067235;28;20048;-68
2023/10/13 00:30:36;;;;;;;17.63;8.65;;;;;;;;;;5065217;28;20049;-68
2023/10/13 00:33:04;;;;;;;11.05;8.05;;;;;;;;;;5063764;28;20052;-68
2023/10/13 00:35:36;;;;;;;10.98;7.75;;;;;;;;;;5060240;28;20045;-68
2023/10/13 00:38:12;;;;;;;11.95;7.90;;;;;;;;;;5067856;28;20075;-68
2023/10/13 00:40:43;;;;;;;16.48;7.55;;;;;;;;;;5059555;28;20053;-67
2023/10/13 00:45:57;;;;;;;16.20;8.30;;;;;;;;;;5058930;28;20056;-68
2023/10/13 00:48:29;;;;;;;11.70;7.93;;;;;;;;;;5070544;28;20470;-68
2023/10/13 00:50:59;;;;;;;13.77;8.77;;;;;;;;;;5072044;28;20489;-68
2023/10/13 00:53:25;;;;;;;14.15;8.27;;;;;;;;;;5071774;28;20076;-68
2023/10/13 00:55:54;;;;;;;13.20;8.00;;;;;;;;;;5057719;28;20059;-68
2023/10/13 00:58:22;;;;;;;10.75;7.93;;;;;;;;;;5068278;28;20083;-68
2023/10/13 01:00:56;;;;;;;17.10;8.48;;;;;;;;;;5065316;28;20041;-68
2023/10/13 01:03:26;;;;;;;16.45;8.27;;;;;;;;;;5069606;28;20131;-68
2023/10/13 01:05:55;;;;;;;12.82;8.30;;;;;;;;;;5052048;28;20045;-68
2023/10/13 01:08:34;;;;;;;17.67;8.85;;;;;;;;;;5053392;28;20041;-67
2023/10/13 01:11:00;;;;;;;16.75;8.32;;;;;;;;;;5071881;28;20052;-68
2023/10/13 01:13:26;;;;;;;12.75;8.68;;;;;;;;;;5061857;28;20052;-68
2023/10/13 01:15:53;;;;;;;16.00;9.93;;;;;;;;;;5057549;28;20048;-68
2023/10/13 01:18:20;;;;;;;16.17;8.73;;;;;;;;;;5061863;28;20721;-68
2023/10/13 01:20:52;;;;;;;14.40;8.88;;;;;;;;;;5051397;28;20481;-69
2023/10/13 01:23:19;;;;;;;14.75;9.10;;;;;;;;;;5051632;28;20099;-68
2023/10/13 01:25:47;;;;;;;16.95;9.38;;;;;;;;;;5059874;28;20060;-68
2023/10/13 01:28:15;;;;;;;14.15;8.13;;;;;;;;;;5051302;28;20056;-68
2023/10/13 01:30:43;;;;;;;18.48;9.18;;;;;;;;;;5059799;28;20087;-68
2023/10/13 01:33:10;;;;;;;16.63;9.45;;;;;;;;;;5051286;28;20536;-68
2023/10/13 01:35:42;;;;;;;17.05;10.55;;;;;;;;;;5063498;28;20048;-68
2023/10/13 01:38:08;;;;;;;20.85;10.95;;;;;;;;;;5056047;28;20609;-68
2023/10/13 01:40:36;;;;;;;16.45;10.40;;;;;;;;;;5060395;28;20075;-68
2023/10/13 01:43:04;;;;;;;19.42;10.07;;;;;;;;;;5055779;28;20049;-67
2023/10/13 01:45:30;;;;;;;14.73;8.65;;;;;;;;;;5063646;28;20045;-68
2023/10/13 01:47:56;;;;;;;19.40;9.73;;;;;;;;;;5072060;28;20508;-69
2023/10/13 01:50:28;;;;;;;13.25;9.07;;;;;;;;;;5075278;28;20041;-68
2023/10/13 01:53:11;;;;;;;14.83;9.40;;;;;;;;;;5067344;28;20502;-68
2023/10/13 01:55:42;;;;;;;15.23;9.07;;;;;;;;;;5058248;28;20140;-68
2023/10/13 01:58:14;;;;;;;11.93;8.20;;;;;;;;;;5075009;28;20080;-68
2023/10/13 02:00:41;;;;;;;15.13;8.77;;;;;;;;;;5068137;28;20040;-68
2023/10/13 02:03:14;;;;;;;16.70;8.60;;;;;;;;;;5067029;28;20091;-68
2023/10/13 02:05:43;;;;;;;13.82;8.55;;;;;;;;;;5054995;28;20507;-68
2023/10/13 02:08:10;;;;;;;16.02;8.77;;;;;;;;;;5054791;28;20481;-68
2023/10/13 02:10:43;;;;;;;14.20;9.15;;;;;;;;;;5058472;28;20048;-68
2023/10/13 02:13:15;;;;;;;;;;;;;;;;;;5075578;28;20476;-68
2023/10/13 02:15:42;;;;;;;20.83;8.70;;;;;;;;;;5054857;28;19937;-68
2023/10/13 02:18:09;;;;;;;16.42;9.27;;;;;;;;;;5054881;28;20041;-68
2023/10/13 02:20:41;;;;;;;16.45;8.75;;;;;;;;;;5054894;28;20052;-68
2023/10/13 02:23:10;;;;;;;15.88;9.10;;;;;;;;;;5071133;28;20044;-68
2023/10/13 02:25:42;;;;;;;14.02;8.68;;;;;;;;;;5058401;28;20045;-68
2023/10/13 02:28:13;;;;;;;15.90;8.60;;;;;;;;;;5074723;28;20135;-67
2023/10/13 02:30:39;;;;;;;16.15;8.85;;;;;;;;;;5074620;28;20044;-68
2023/10/13 02:33:06;;;;;;;15.82;9.65;;;;;;;;;;5067244;28;20053;-68
2023/10/13 02:35:43;;;;;;;16.02;8.90;;;;;;;;;;5062631;28;20053;-68
2023/10/13 02:38:15;;;;;;;14.00;8.70;;;;;;;;;;5068188;28;20447;-68
2023/10/13 02:40:41;;;;;;;18.13;8.93;;;;;;;;;;5059133;28;20049;-68
2023/10/13 02:43:08;;;;;;;13.27;9.00;;;;;;;;;;5067770;28;20170;-68
2023/10/13 02:45:36;;;;;;;14.93;9.30;;;;;;;;;;5054385;28;20055;-68
2023/10/13 02:48:16;;;;;;;18.58;8.80;;;;;;;;;;5054670;28;20091;-69
2023/10/13 02:50:43;;;;;;;14.73;9.30;;;;;;;;;;5054512;28;20579;-69
2023/10/13 02:53:13;;;;;;;17.88;8.93;;;;;;;;;;5062494;28;20053;-67
2023/10/13 02:55:49;;;;;;;14.93;8.27;;;;;;;;;;5054288;28;20056;-68
2023/10/13 02:58:16;;;;;;;12.27;8.40;;;;;;;;;;5053520;28;20469;-68
2023/10/13 03:00:44;;;;;;;18.42;8.68;;;;;;;;;;5058220;28;20047;-69
2023/10/13 03:03:10;;;;;;;14.25;8.32;;;;;;;;;;5074118;28;20045;-68
2023/10/13 03:05:38;;;;;;;13.20;7.97;;;;;;;;;;5074099;28;20055;-68
2023/10/13 03:08:06;;;;;;;16.45;8.07;;;;;;;;;;5057812;28;20500;-68
2023/10/13 03:10:32;;;;;;;13.20;8.23;;;;;;;;;;5053810;28;20095;-68
2023/10/13 03:13:01;;;;;;;14.38;8.20;;;;;;;;;;5053534;28;20049;-68
2023/10/13 03:15:31;;;;;;;12.55;8.30;;;;;;;;;;5053898;28;20056;-68
2023/10/13 03:17:59;;;;;;;16.58;8.55;;;;;;;;;;5053840;28;20045;-68
2023/10/13 03:20:31;;;;;;;13.43;8.38;;;;;;;;;;5071819;28;20420;-68
2023/10/13 03:22:58;;;;;;;16.17;8.10;;;;;;;;;;5068694;28;20559;-68
2023/10/13 03:25:29;;;;;;;17.92;7.75;;;;;;;;;;5072089;28;20131;-68
2023/10/13 03:28:04;;;;;;;13.73;7.07;;;;;;;;;;5060137;28;20041;-68
2023/10/13 03:30:35;;;;;;;14.75;8.38;;;;;;;;;;5062140;28;20080;-69
2023/10/13 03:33:07;;;;;;;18.33;8.13;;;;;;;;;;5053760;28;20051;-68
2023/10/13 03:35:43;;;;;;;14.60;8.57;;;;;;;;;;5055300;28;20044;-68
2023/10/13 03:38:20;;;;;;;17.38;8.63;;;;;;;;;;5061469;28;20110;-68
2023/10/13 03:40:56;;;;;;;18.95;8.52;;;;;;;;;;5053481;28;20488;-68
2023/10/13 03:43:23;;;;;;;17.35;8.70;;;;;;;;;;5063710;28;20102;-68
2023/10/13 03:46:00;;;;;;;17.35;9.00;;;;;;;;;;5073401;28;20063;-68
2023/10/13 03:48:31;;;;;;;19.10;8.10;;;;;;;;;;5073067;28;20062;-68
2023/10/13 03:51:03;;;;;;;15.05;7.80;;;;;;;;;;5073472;28;20457;-68
2023/10/13 03:53:33;;;;;;;12.85;8.48;;;;;;;;;;5073503;28;20457;-68
2023/10/13 03:56:08;;;;;;;13.07;7.90;;;;;;;;;;5067955;28;20528;-68
2023/10/13 03:58:36;;;;;;;17.30;8.18;;;;;;;;;;5053131;28;20048;-68
2023/10/13 04:01:03;;;;;;;18.58;8.57;;;;;;;;;;5053266;28;20045;-68
2023/10/13 04:03:35;;;;;;;17.35;8.18;;;;;;;;;;5052865;28;20131;-68
2023/10/13 04:06:06;;;;;;;17.77;8.60;;;;;;;;;;5059103;28;20087;-68
2023/10/13 04:09:51;;;;;;;15.05;8.10;;;;;;;;;;5064484;28;20044;-68
2023/10/13 04:11:59;;;;;;;16.42;7.55;;;;;;;;;;5071553;28;20488;-69
2023/10/13 04:14:56;;;;;;;18.00;8.30;;;;;;;;;;5053688;28;20110;-68
2023/10/13 04:17:14;;;;;;;16.38;8.35;;;;;;;;;;5069439;28;20508;-68
2023/10/13 04:20:12;;;;;;;15.80;8.98;;;;;;;;;;5072502;28;20047;-68
2023/10/13 04:25:35;;;;;;;15.30;9.10;;;;;;;;;;5064529;28;20067;-68
2023/10/13 04:28:15;;;;;;;15.30;8.23;;;;;;;;;;5059697;28;20044;-68
2023/10/13 04:30:57;;;;;;;14.25;7.75;;;;;;;;;;5052718;28;20493;-67
2023/10/13 04:33:35;;;;;;;13.65;7.35;;;;;;;;;;5052803;28;20424;-68
2023/10/13 04:36:13;;;;;;;12.45;6.90;;;;;;;;;;5059163;28;20052;-69
2023/10/13 04:38:55;;;;;;;16.52;7.88;;;;;;;;;;5063948;28;20125;-68
2023/10/13 04:41:23;;;;;;;12.95;7.75;;;;;;;;;;5064253;28;20055;-68
2023/10/13 04:44:04;;;;;;;22.85;7.88;;;;;;;;;;5058422;28;20413;-68
2023/10/13 04:46:54;;;;;;;17.60;7.45;;;;;;;;;;5052785;28;20413;-68
2023/10/13 04:49:28;;;;;;;13.18;7.80;;;;;;;;;;5061509;28;20098;-68
2023/10/13 04:51:58;;;;;;;13.38;7.35;;;;;;;;;;5057678;28;20049;-68
2023/10/13 04:54:44;;;;;;;12.85;7.47;;;;;;;;;;5054028;28;20128;-68
2023/10/13 05:03:17;;;;;;;14.90;8.20;;;;;;;;;;5051912;28;20131;-67
2023/10/13 05:06:10;;;;;;;13.23;7.47;;;;;;;;;;5051897;28;20400;-68
2023/10/13 05:49:49;;;;;;;15.40;8.27;;;;;;;;;;5061561;28;20053;-68
2023/10/13 06:30:35;;;;;;;14.27;7.30;;;;;;;;;;5063910;28;20140;-67
2023/10/13 06:33:04;;;;;;;10.75;7.03;;;;;;;;;;5063906;28;20051;-67
2023/10/13 06:35:31;;;;;;;12.02;7.88;;;;;;;;;;5063656;28;20045;-68
2023/10/13 06:38:00;;;;;;;13.02;6.93;;;;;;;;;;5069710;28;20098;-68
2023/10/13 06:40:26;;;;;;;15.00;7.35;;;;;;;;;;5056172;28;20045;-68
2023/10/13 06:42:53;;;;;;;13.52;7.18;;;;;;;;;;5054634;28;20326;-68
2023/10/13 06:45:21;;;;;;;16.98;7.72;;;;;;;;;;5062878;28;20135;-68
2023/10/13 06:47:53;;;;;;;16.40;7.05;;;;;;;;;;5059791;28;20048;-68
2023/10/13 06:50:24;;;;;;;20.88;7.47;;;;;;;;;;5073010;28;20072;-68
2023/10/13 06:52:54;;;;;;;14.95;6.75;;;;;;;;;;5054471;28;20057;-67
2023/10/13 06:55:26;;;;;;;15.85;7.05;;;;;;;;;;5054307;28;20053;-68
2023/10/13 06:57:53;;;;;;;17.70;7.38;;;;;;;;;;5055770;28;20045;-68
2023/10/13 07:00:28;;;;;;;16.02;7.30;;;;;;;;;;5063329;28;20045;-68
2023/10/13 07:03:05;;;;;;;17.52;7.13;;;;;;;;;;5069895;28;20045;-68
2023/10/13 07:05:35;;;;;;;13.38;6.68;;;;;;;;;;5054497;28;20049;-68
2023/10/13 07:08:04;;;;;;;13.52;7.53;;;;;;;;;;5063037;28;20052;-68
2023/10/13 07:10:35;;;;;;;18.35;6.22;;;;;;;;;;5062350;28;20045;-68
2023/10/13 07:13:04;;;;;;;13.75;5.93;;;;;;;;;;5059627;28;20053;-67
2023/10/13 07:15:31;;;;;;;13.18;6.10;;;;;;;;;;5063272;28;20084;-68
2023/10/13 07:18:00;;;;;;;14.43;6.25;;;;;;;;;;5060847;28;20048;-67
2023/10/13 07:20:34;;;;;;;13.18;6.05;;;;;;;;;;5067197;28;20528;-68
2023/10/13 07:23:03;;;;;;;13.18;5.60;;;;;;;;;;5065606;28;20049;-67
2023/10/13 07:25:32;;;;;;;12.27;5.50;;;;;;;;;;5064147;28;20496;-67
2023/10/13 07:27:59;;;;;;;13.45;5.47;;;;;;;;;;5060784;28;20053;-68
2023/10/13 07:30:27;;;;;;;13.30;5.65;;;;;;;;;;5073886;28;20041;-68
2023/10/13 07:32:57;;;;;;;12.05;5.68;;;;;;;;;;5069166;28;20413;-68
2023/10/13 07:35:26;;;;;;;11.82;5.25;;;;;;;;;;5072429;28;20053;-68
2023/10/13 07:37:54;;;;;;;15.40;5.55;;;;;;;;;;5073576;28;20050;-68
2023/10/13 07:40:39;;;;;;;14.98;5.15;;;;;;;;;;5073372;28;20139;-68
2023/10/13 07:43:10;;;;;;;11.93;5.22;;;;;;;;;;5053673;28;20045;-68
2023/10/13 07:45:37;;;;;;;11.10;5.20;;;;;;;;;;5057492;28;20084;-68
2023/10/13 07:48:11;;;;;;;16.33;5.72;;;;;;;;;;5057540;28;20045;-67
2023/10/13 07:50:40;;;;;;;14.70;5.07;;;;;;;;;;5063376;28;20420;-68
2023/10/13 07:53:18;;;;;;;16.65;5.32;;;;;;;;;;5064544;28;20056;-69
2023/10/13 07:55:46;;;;;;;13.50;5.47;;;;;;;;;;5067552;28;20475;-69
2023/10/13 07:58:13;;;;;;;11.98;5.80;;;;;;;;;;5067089;28;20052;-68
2023/10/13 08:00:47;;;;;;;9.77;5.18;;;;;;;;;;5060678;28;20070;-69
2023/10/13 08:06:04;;;;;;;8.43;4.75;;;;;;;;;;5057494;28;20044;-69
2023/10/13 08:08:37;;;;;;;12.00;5.07;;;;;;;;;;5060031;28;20049;-68
2023/10/13 08:11:11;;;;;;;9.07;4.95;;;;;;;;;;5059511;28;20045;-68
2023/10/13 08:13:40;;;;;;;13.05;5.63;;;;;;;;;;5069077;28;20053;-69
2023/10/13 08:16:09;;;;;;;11.73;5.60;;;;;;;;;;5062266;28;20044;-68
2023/10/13 08:18:41;;;;;;;14.18;4.80;;;;;;;;;;5060287;28;20064;-68
2023/10/13 08:21:16;;;;;;;15.27;5.20;;;;;;;;;;5066280;28;20113;-69
2023/10/13 08:23:59;;;;;;;7.93;4.70;;;;;;;;;;5061366;28;20041;-68
2023/10/13 08:26:38;;;;;;;9.85;4.40;;;;;;;;;;5069626;28;20059;-69
2023/10/13 08:30:11;;;;;;;11.95;5.07;;;;;;;;;;5066916;28;20051;-69
2023/10/13 08:32:14;;;;;;;12.52;5.07;;;;;;;;;;5057503;28;20049;-68
2023/10/13 08:34:59;;;;;;;9.52;4.57;;;;;;;;;;5059451;28;20467;-68
2023/10/13 08:37:33;;;;;;;7.72;4.60;;;;;;;;;;5068609;28;20110;-69
2023/10/13 08:42:53;;;;;;;8.50;4.68;;;;;;;;;;5066929;28;20459;-68
2023/10/13 08:45:53;;;;;;;12.70;5.20;;;;;;;;;;5066697;28;20045;-69
2023/10/13 08:48:12;;;;;;;9.73;4.35;;;;;;;;;;5063945;28;20508;-69
2023/10/13 08:50:52;;;;;;;11.02;5.13;;;;;;;;;;5065892;28;20051;-69
2023/10/13 08:53:26;;;;;;;9.73;5.18;;;;;;;;;;5061616;28;20053;-69
2023/10/13 08:56:05;;;;;;;8.02;5.07;;;;;;;;;;5063430;28;20098;-68
2023/10/13 09:01:13;;;;;;;10.02;5.38;;;;;;;;;;5061520;28;20049;-67
2023/10/13 09:03:41;;;;;;;9.23;5.88;;;;;;;;;;5066359;28;20049;-68
2023/10/13 09:06:14;;;;;;;8.93;5.22;;;;;;;;;;5070241;28;20048;-68
2023/10/13 09:09:06;;;;;;;9.77;5.05;;;;;;;;;;5066531;28;20055;-69
2023/10/13 09:11:48;;;;;;;9.90;5.10;;;;;;;;;;5059651;28;20056;-68
2023/10/13 09:14:32;;;;;;;10.73;5.40;;;;;;;;;;5067878;28;20064;-69
2023/10/13 09:17:12;;;;;;;11.82;5.70;;;;;;;;;;5061725;28;20364;-68
2023/10/13 09:19:49;;;;;;;10.95;5.18;;;;;;;;;;5066166;28;20095;-69
2023/10/13 09:22:27;;;;;;;13.85;5.45;;;;;;;;;;5053124;28;20155;-69
2023/10/13 09:24:59;;;;;;;11.93;5.32;;;;;;;;;;5054860;28;20459;-69
2023/10/13 09:27:26;;;;;;;11.20;5.05;;;;;;;;;;5060541;28;20045;-68
2023/10/13 09:30:09;;;;;;;9.38;5.20;;;;;;;;;;5054572;28;20044;-68
2023/10/13 09:32:45;;;;;;;12.10;5.07;;;;;;;;;;5056469;28;20040;-69
2023/10/13 09:35:17;;;;;;;11.07;5.22;;;;;;;;;;5057729;28;20467;-69
2023/10/13 09:37:46;;;;;;;11.25;5.55;;;;;;;;;;5060285;28;20055;-69
2023/10/13 09:40:33;;;;;;;10.68;5.05;;;;;;;;;;5060245;28;20140;-69
2023/10/13 09:43:04;;;;;;;8.82;5.03;;;;;;;;;;5061573;28;20048;-69
2023/10/13 09:45:36;;;;;;;9.50;4.88;;;;;;;;;;5066205;28;20045;-68
2023/10/13 09:48:06;;;;;;;9.73;5.28;;;;;;;;;;5066202;28;20135;-68
2023/10/13 09:50:37;;;;;;;10.20;5.38;;;;;;;;;;5060976;28;20417;-69
2023/10/13 09:53:08;;;;;;;8.47;5.60;;;;;;;;;;5063430;28;20075;-69
2023/10/13 09:55:44;;;;;;;8.80;5.32;;;;;;;;;;5059560;28;20056;-68
2023/10/13 09:58:13;;;;;;;12.15;5.30;;;;;;;;;;5064664;28;20052;-68
2023/10/13 10:00:48;;;;;;;14.70;5.53;;;;;;;;;;5063767;28;20420;-68
2023/10/13 10:06:06;;;;;;;9.63;5.32;;;;;;;;;;5062356;28;20633;-69
2023/10/13 10:08:33;;;;;;;9.73;5.03;;;;;;;;;;5066270;28;20061;-69
2023/10/13 10:11:28;;;;;;;7.28;5.47;;;;;;;;;;5066938;28;20041;-68
2023/10/13 10:14:08;;;;;;;9.18;4.53;;;;;;;;;;5064157;28;20492;-69
2023/10/13 10:16:46;;;;;;;8.13;5.07;;;;;;;;;;5061793;28;20473;-68
2023/10/13 10:19:13;;;;;;;9.02;5.18;;;;;;;;;;5059466;28;20126;-69
2023/10/13 10:21:41;;;;;;;9.15;5.38;;;;;;;;;;5069356;28;20045;-69
2023/10/13 10:24:24;;;;;;;8.82;4.90;;;;;;;;;;5068183;28;20106;-68
2023/10/13 10:26:55;;;;;;;10.52;5.63;;;;;;;;;;5061720;28;20049;-69
2023/10/13 10:29:21;;;;;;;11.18;5.70;;;;;;;;;;5062840;28;20045;-69
2023/10/13 10:31:48;;;;;;;8.73;5.20;;;;;;;;;;5064060;28;20048;-69
2023/10/13 10:34:18;;;;;;;8.07;5.45;;;;;;;;;;5069744;28;20044;-68
2023/10/13 10:36:47;;;;;;;8.35;5.40;;;;;;;;;;5056915;28;20045;-69
2023/10/13 10:39:15;;;;;;;6.28;4.68;;;;;;;;;;5063107;28;20048;-68
2023/10/13 10:41:51;;;;;;;11.52;5.47;;;;;;;;;;5071371;28;20056;-68
2023/10/13 10:44:33;;;;;;;7.95;5.20;;;;;;;;;;5068316;28;20052;-68
2023/10/13 10:47:10;;;;;;;10.88;5.38;;;;;;;;;;5066301;28;20045;-69
2023/10/13 10:49:38;;;;;;;10.98;4.90;;;;;;;;;;5064794;28;20044;-68
2023/10/13 10:52:18;;;;;;;7.10;4.72;;;;;;;;;;5069839;28;20048;-69
2023/10/13 10:54:45;;;;;;;9.75;5.72;;;;;;;;;;5071265;28;20079;-69
2023/10/13 10:57:17;;;;;;;7.50;4.55;;;;;;;;;;5071692;28;20143;-69
2023/10/13 10:59:45;;;;;;;11.77;4.60;;;;;;;;;;5061734;28;20048;-68
2023/10/13 11:02:15;;;;;;;8.52;4.40;;;;;;;;;;5059120;28;20045;-69
2023/10/13 11:04:50;;;;;;;6.93;4.63;;;;;;;;;;5064530;28;20135;-69
2023/10/13 11:07:23;;;;;;;6.80;4.10;;;;;;;;;;5070964;28;20056;-69
2023/10/13 11:09:52;;;;;;;7.55;4.50;;;;;;;;;;5056681;28;20060;-69
2023/10/13 11:12:25;;;;;;;6.35;4.63;;;;;;;;;;5065903;28;20071;-69
2023/10/13 11:15:04;;;;;;;10.07;4.85;;;;;;;;;;5058883;28;20040;-69
2023/10/13 11:17:48;;;;;;;7.80;4.90;;;;;;;;;;5063185;28;20045;-69
2023/10/13 11:20:25;;;;;;;9.55;4.70;;;;;;;;;;5066284;28;20048;-69
2023/10/13 11:22:52;;;;;;;6.30;4.13;;;;;;;;;;5057427;28;20048;-69
2023/10/13 11:25:29;;;;;;;6.60;4.63;;;;;;;;;;5061917;28;20484;-68
2023/10/13 11:27:58;;;;;;;9.02;4.65;;;;;;;;;;5065769;28;20080;-68
2023/10/13 11:30:40;;;;;;;7.45;4.40;;;;;;;;;;5055839;28;20541;-69
2023/10/13 11:33:09;;;;;;;9.88;5.35;;;;;;;;;;5070610;28;20056;-68
2023/10/13 11:35:55;;;;;;;9.07;4.80;;;;;;;;;;5063776;28;20512;-69
2023/10/13 11:38:26;;;;;;;8.60;4.65;;;;;;;;;;5067910;28;20052;-69
2023/10/13 11:41:12;;;;;;;9.07;4.60;;;;;;;;;;5056698;28;20093;-69
2023/10/13 11:49:18;;;;;;;7.32;4.38;;;;;;;;;;5039728;28;20505;-69
2023/10/13 11:51:46;;;;;;;8.27;4.28;;;;;;;;;;5067365;28;20094;-69
2023/10/13 11:54:13;;;;;;;8.32;4.18;;;;;;;;;;5056670;28;20527;-68
2023/10/13 11:56:39;;;;;;;8.57;4.47;;;;;;;;;;5068552;28;20045;-69
2023/10/13 11:59:06;;;;;;;9.57;4.60;;;;;;;;;;5069921;28;20078;-69
2023/10/13 12:04:40;;;;;;;10.00;4.47;;;;;;;;;;5058972;28;20508;-68
2023/10/13 12:07:17;;;;;;;7.43;3.97;;;;;;;;;;5063552;28;20076;-68
2023/10/13 12:10:02;;;;;;;10.32;4.30;;;;;;;;;;5068908;28;20409;-68
2023/10/13 12:12:30;;;;;;;5.85;4.47;;;;;;;;;;5060072;28;20053;-69
2023/10/13 12:14:57;;;;;;;7.93;4.25;;;;;;;;;;5058661;28;20041;-69
2023/10/13 12:17:31;;;;;;;7.07;4.30;;;;;;;;;;5066951;28;20041;-69
2023/10/13 12:19:58;;;;;;;7.22;4.70;;;;;;;;;;5060309;28;20049;-69
2023/10/13 12:22:28;;;;;;;7.53;4.28;;;;;;;;;;5059124;28;20533;-69
2023/10/13 12:24:55;;;;;;;9.20;4.85;;;;;;;;;;5064899;28;20044;-69
2023/10/13 12:27:26;;;;;;;10.27;4.43;;;;;;;;;;5059994;28;20539;-69
2023/10/13 12:29:56;;;;;;;11.85;4.38;;;;;;;;;;5057902;28;20048;-69
2023/10/13 12:32:25;;;;;;;9.82;4.60;;;;;;;;;;5067412;28;20049;-68
2023/10/13 12:35:17;;;;;;;7.32;4.10;;;;;;;;;;5068460;28;20049;-68
2023/10/13 12:38:04;;;;;;;11.43;4.18;;;;;;;;;;5066460;28;20052;-69
2023/10/13 12:49:04;;;;;;;7.22;3.90;;;;;;;;;;5064594;28;20102;-69
2023/10/13 12:51:51;;;;;;;7.15;3.75;;;;;;;;;;5056041;28;20130;-69
2023/10/13 12:54:23;;;;;;;7.50;4.07;;;;;;;;;;5060417;28;20491;-69
2023/10/13 12:56:56;;;;;;;7.38;4.22;;;;;;;;;;5062028;28;20064;-70
2023/10/13 12:59:26;;;;;;;7.50;3.90;;;;;;;;;;5061139;28;20076;-70
2023/10/13 13:01:53;;;;;;;8.73;4.18;;;;;;;;;;5062703;28;20048;-69
2023/10/13 13:04:20;;;;;;;8.50;4.07;;;;;;;;;;5067674;28;20044;-69
2023/10/13 13:06:48;;;;;;;7.70;4.30;;;;;;;;;;5062317;28;20148;-70
2023/10/13 13:09:15;;;;;;;12.32;4.03;;;;;;;;;;5060686;28;20054;-70
2023/10/13 13:11:42;;;;;;;10.63;4.50;;;;;;;;;;5053844;28;20051;-70
2023/10/13 13:14:08;;;;;;;9.65;4.43;;;;;;;;;;5056303;28;20136;-69
2023/10/13 13:16:35;;;;;;;6.43;4.25;;;;;;;;;;5066284;28;20041;-69
2023/10/13 13:19:09;;;;;;;6.63;4.40;;;;;;;;;;5067483;28;20519;-70
2023/10/13 13:21:36;;;;;;;8.05;4.55;;;;;;;;;;5067110;28;20102;-70
2023/10/13 13:24:10;;;;;;;7.30;4.25;;;;;;;;;;5057435;28;20041;-70
2023/10/13 13:26:40;;;;;;;7.38;4.60;;;;;;;;;;5060544;28;20053;-70
2023/10/13 13:29:09;;;;;;;9.05;4.70;;;;;;;;;;5067673;28;20048;-70
2023/10/13 13:31:40;;;;;;;7.38;4.07;;;;;;;;;;5060631;28;20052;-70
2023/10/13 13:34:09;;;;;;;7.72;4.55;;;;;;;;;;5062569;28;20148;-70
2023/10/13 13:36:35;;;;;;;8.88;4.15;;;;;;;;;;5067531;28;20467;-70
2023/10/13 13:39:05;;;;;;;7.88;4.55;;;;;;;;;;5061057;28;20054;-70
2023/10/13 13:41:33;;;;;;;6.30;4.07;;;;;;;;;;5066737;28;20452;-70
2023/10/13 13:44:12;;;;;;;7.55;4.10;;;;;;;;;;5064970;28;20049;-70
2023/10/13 13:46:42;;;;;;;7.30;3.80;;;;;;;;;;5070255;28;20056;-70
2023/10/13 13:49:17;;;;;;;8.63;3.95;;;;;;;;;;5071507;28;20049;-70
2023/10/13 13:51:51;;;;;;;10.20;4.28;;;;;;;;;;5071031;28;20045;-70
2023/10/13 13:54:20;;;;;;;8.38;4.00;;;;;;;;;;5062793;28;20320;-70
2023/10/13 13:56:46;;;;;;;8.45;4.15;;;;;;;;;;5062424;28;20049;-70
2023/10/13 13:59:15;;;;;;;7.97;4.32;;;;;;;;;;5066984;28;20084;-70
2023/10/13 14:01:44;;;;;;;6.60;4.32;;;;;;;;;;5071124;28;20056;-70
2023/10/13 14:04:11;;;;;;;10.25;3.85;;;;;;;;;;5072602;28;20080;-70
2023/10/13 14:06:38;;;;;;;6.97;4.07;;;;;;;;;;5062836;28;20045;-70
2023/10/13 14:09:14;;;;;;;15.13;4.43;;;;;;;;;;5070992;28;20094;-70
2023/10/13 14:14:34;;;;;;;6.93;3.95;;;;;;;;;;5066810;28;20106;-70
2023/10/13 14:17:06;;;;;;;7.13;3.90;;;;;;;;;;5066009;28;20397;-70
2023/10/13 14:19:34;;;;;;;7.80;4.00;;;;;;;;;;5063453;28;20060;-70
2023/10/13 14:22:06;;;;;;;9.73;4.15;;;;;;;;;;5065146;28;20059;-70
2023/10/13 14:24:34;;;;;;;7.85;4.10;;;;;;;;;;5069714;28;20049;-70
2023/10/13 14:27:09;;;;;;;9.60;4.13;;;;;;;;;;5066744;28;20068;-70
2023/10/13 14:29:39;;;;;;;11.15;3.97;;;;;;;;;;5069598;28;20041;-70
2023/10/13 14:32:11;;;;;;;6.78;3.80;;;;;;;;;;5073713;28;20045;-70
2023/10/13 14:34:39;;;;;;;7.30;3.97;;;;;;;;;;5070256;28;20158;-70
2023/10/13 14:37:05;;;;;;;7.15;3.63;;;;;;;;;;5071668;28;20055;-70
2023/10/13 14:39:34;;;;;;;7.70;4.05;;;;;;;;;;5061624;28;20049;-70
2023/10/13 14:42:02;;;;;;;5.75;3.65;;;;;;;;;;5064126;28;20052;-70
2023/10/13 14:44:29;;;;;;;11.15;4.22;;;;;;;;;;5071014;28;20139;-70
2023/10/13 14:46:56;;;;;;;6.47;4.00;;;;;;;;;;5070636;28;20532;-70
2023/10/13 14:49:24;;;;;;;10.13;4.43;;;;;;;;;;5069590;28;20484;-70
2023/10/13 14:51:50;;;;;;;9.43;3.70;;;;;;;;;;5062135;28;20230;-70
2023/10/13 14:54:25;;;;;;;11.98;3.88;;;;;;;;;;5055450;28;20136;-70
2023/10/13 14:56:54;;;;;;;6.82;4.10;;;;;;;;;;5064574;28;20044;-70
2023/10/13 14:59:22;;;;;;;12.05;4.55;;;;;;;;;;5069312;28;20056;-70
2023/10/13 15:01:49;;;;;;;6.88;3.70;;;;;;;;;;5072460;28;20044;-70
2023/10/13 15:04:15;;;;;;;6.55;4.30;;;;;;;;;;5072742;28;20047;-70
2023/10/13 15:06:43;;;;;;;8.15;4.07;;;;;;;;;;5070133;28;20049;-70
2023/10/13 15:09:11;;;;;;;9.63;4.38;;;;;;;;;;5063117;28;20090;-70
2023/10/13 15:11:37;;;;;;;8.80;4.22;;;;;;;;;;5068357;28;20106;-70
2023/10/13 15:14:06;;;;;;;9.77;4.55;;;;;;;;;;5069753;28;20514;-70
2023/10/13 15:16:34;;;;;;;7.60;4.20;;;;;;;;;;5071993;28;20456;-70
2023/10/13 15:19:03;;;;;;;6.90;4.25;;;;;;;;;;5069501;28;20098;-70
2023/10/13 15:21:34;;;;;;;8.73;4.13;;;;;;;;;;5069411;28;20727;-70
2023/10/13 15:24:03;;;;;;;9.50;4.83;;;;;;;;;;5070844;28;20051;-69
2023/10/13 15:26:30;;;;;;;8.18;4.72;;;;;;;;;;5070409;28;20132;-70
2023/10/13 15:29:00;;;;;;;7.80;4.80;;;;;;;;;;5069953;28;20044;-70
2023/10/13 15:31:37;;;;;;;10.18;5.60;;;;;;;;;;5063732;28;20394;-70
2023/10/13 15:34:06;;;;;;;9.63;4.90;;;;;;;;;;5060262;28;20045;-69
2023/10/13 15:36:34;;;;;;;10.90;5.65;;;;;;;;;;5067252;28;20053;-70
2023/10/13 15:39:00;;;;;;;11.70;5.88;;;;;;;;;;5070280;28;20052;-70
2023/10/13 15:41:28;;;;;;;9.48;5.45;;;;;;;;;;5069155;28;20067;-70
2023/10/13 15:43:55;;;;;;;9.40;5.22;;;;;;;;;;5069230;28;20045;-70
2023/10/13 15:46:23;;;;;;;7.22;4.28;;;;;;;;;;5061653;28;20068;-69
2023/10/13 15:48:49;;;;;;;9.27;4.40;;;;;;;;;;5062867;28;20046;-70
2023/10/13 15:51:17;;;;;;;8.45;4.13;;;;;;;;;;5062335;28;20510;-69
2023/10/13 15:53:47;;;;;;;6.30;3.90;;;;;;;;;;5064425;28;20045;-70
2023/10/13 15:56:14;;;;;;;8.63;4.38;;;;;;;;;;5062001;28;20102;-70
2023/10/13 15:58:43;;;;;;;8.05;4.18;;;;;;;;;;5064091;28;20479;-69
2023/10/13 16:01:12;;;;;;;14.40;4.55;;;;;;;;;;5070505;28;20458;-70
2023/10/13 16:03:39;;;;;;;6.32;4.15;;;;;;;;;;5059056;28;20053;-70
2023/10/13 16:06:09;;;;;;;10.20;4.25;;;;;;;;;;5058767;28;20048;-70
2023/10/13 16:08:38;;;;;;;8.82;4.25;;;;;;;;;;5060291;28;20128;-69
2023/10/13 16:11:07;;;;;;;8.10;3.88;;;;;;;;;;5069355;28;20434;-69
2023/10/13 16:13:34;;;;;;;9.57;4.00;;;;;;;;;;5067690;28;20053;-69
2023/10/13 16:16:01;;;;;;;8.73;4.13;;;;;;;;;;5064805;28;20508;-70
2023/10/13 16:18:32;;;;;;;7.72;4.50;;;;;;;;;;5066109;28;20493;-70
2023/10/13 16:20:59;;;;;;;10.45;4.57;;;;;;;;;;5063729;28;20048;-70
2023/10/13 16:23:27;;;;;;;8.90;4.15;;;;;;;;;;5067833;28;20051;-70
2023/10/13 16:25:58;;;;;;;7.80;4.45;;;;;;;;;;5064179;28;20045;-70
2023/10/13 16:28:24;;;;;;;10.00;4.28;;;;;;;;;;5060576;28;20053;-70
2023/10/13 16:30:53;;;;;;;9.10;4.82;;;;;;;;;;5069713;28;20052;-69
2023/10/13 16:33:20;;;;;;;10.75;4.75;;;;;;;;;;5066484;28;20492;-70
2023/10/13 16:35:47;;;;;;;11.75;5.15;;;;;;;;;;5069547;28;20040;-69
2023/10/13 16:38:14;;;;;;;8.95;4.43;;;;;;;;;;5067871;28;20507;-70
2023/10/13 16:40:40;;;;;;;10.40;4.40;;;;;;;;;;5068319;28;20049;-69
2023/10/13 16:43:08;;;;;;;19.95;8.50;;;;;;;;;;5061586;28;20056;-69
2023/10/13 16:45:36;;;;;;;17.27;7.45;;;;;;;;;;5066311;28;20041;-69
2023/10/13 16:48:05;;;;;;;17.42;7.60;;;;;;;;;;5068410;28;20045;-70
2023/10/13 16:50:37;;;;;;;14.13;7.78;;;;;;;;;;5065764;28;20444;-70
2023/10/13 16:53:05;;;;;;;10.68;5.57;;;;;;;;;;5062248;28;20047;-69
2023/10/13 16:55:32;;;;;;;11.77;5.47;;;;;;;;;;5059679;28;20049;-69
2023/10/13 16:57:59;;;;;;;16.98;7.40;;;;;;;;;;5062836;28;20424;-69
2023/10/13 17:00:26;;;;;;;13.27;8.65;;;;;;;;;;5060098;28;20431;-69
2023/10/13 17:02:53;;;;;;;12.00;7.90;;;;;;;;;;5067966;28;20488;-69